Terminal Aerodrome Forecast
Issued by NWS Charleston, SC

Current Version | Previous Version | Text Only | Print | Product List | Glossary On
Versions: 1 2 3 4 5 6 7 8 9 10 11 12 13
000
FTUS42 KCHS 200500
TAFSAV
TAF
KSAV 200540Z 2006/2106 00000KT P6SM SCT080 BKN120
     FM200800 VRB03KT P6SM -RA SCT035 BKN070
     FM201300 01004KT 6SM -RA BR SCT015 OVC050
     FM201600 01005KT P6SM SCT020 BKN035
     FM210200 02005KT P6SM BKN007 OVC040=

USA.gov is the U.S. government's official web portal to all federal, state and local government web resources and services.